createdAt,value
2022-07-28T00:00:53.546Z,27.90
2022-07-28T00:03:20.956Z,27.80
2022-07-28T00:05:49.931Z,27.80
2022-07-28T00:08:17.717Z,27.70
2022-07-28T00:10:45.058Z,27.70
2022-07-28T00:13:12.393Z,27.60
2022-07-28T00:15:39.859Z,27.70
2022-07-28T00:18:07.248Z,27.70
2022-07-28T00:20:34.589Z,27.60
2022-07-28T00:23:01.861Z,27.50
2022-07-28T00:25:29.127Z,27.40
2022-07-28T00:27:56.418Z,27.40
2022-07-28T00:30:23.894Z,27.40
2022-07-28T00:32:51.203Z,27.40
2022-07-28T00:35:30.159Z,27.40
2022-07-28T00:37:58.248Z,27.40
2022-07-28T00:40:45.595Z,27.30
2022-07-28T00:43:13.096Z,27.30
2022-07-28T00:45:40.349Z,27.30
2022-07-28T00:48:13.957Z,27.30
2022-07-28T00:50:41.679Z,27.20
2022-07-28T00:53:09.138Z,27.20
2022-07-28T00:56:06.106Z,27.20
2022-07-28T00:58:29.114Z,27.20
2022-07-28T01:00:56.998Z,27.30
2022-07-28T01:03:25.266Z,27.30
2022-07-28T01:06:17.779Z,27.30
2022-07-28T01:08:58.806Z,27.20
2022-07-28T01:12:07.560Z,27.20
2022-07-28T01:14:44.128Z,27.20
2022-07-28T01:17:19.967Z,27.10
2022-07-28T01:19:58.873Z,27.10
2022-07-28T01:22:32.397Z,27.10
2022-07-28T01:25:02.509Z,27.10
2022-07-28T01:27:39.046Z,27.10
2022-07-28T01:30:23.254Z,27.10
2022-07-28T01:40:40.731Z,27.00
2022-07-28T01:43:13.321Z,27.10
2022-07-28T01:45:42.531Z,27.10
2022-07-28T01:48:12.097Z,27.10
2022-07-28T01:50:41.787Z,27.10
2022-07-28T01:53:12.226Z,27.10
2022-07-28T01:55:42.691Z,27.10
2022-07-28T01:58:12.952Z,27.00
2022-07-28T02:00:42.727Z,27.00
2022-07-28T02:03:12.319Z,26.90
2022-07-28T02:05:42.552Z,26.90
2022-07-28T02:08:11.436Z,26.80
2022-07-28T02:10:42.705Z,26.70
2022-07-28T02:13:11.840Z,26.50
2022-07-28T02:15:40.126Z,26.40
2022-07-28T02:18:07.958Z,26.30
2022-07-28T02:20:36.701Z,26.30
2022-07-28T02:23:04.806Z,26.20
2022-07-28T02:25:33.286Z,26.10
2022-07-28T02:28:06.071Z,26.00
2022-07-28T02:31:01.399Z,25.90
2022-07-28T02:33:58.882Z,25.80
2022-07-28T02:36:44.890Z,25.70
2022-07-28T02:39:40.570Z,25.60
2022-07-28T02:42:14.627Z,25.70
2022-07-28T02:44:46.680Z,25.60
2022-07-28T02:47:18.918Z,25.60
2022-07-28T02:49:50.935Z,25.60
2022-07-28T02:52:22.454Z,25.60
2022-07-28T02:54:54.127Z,25.70
2022-07-28T02:57:23.150Z,25.70
2022-07-28T02:59:51.461Z,25.80
2022-07-28T03:02:23.529Z,25.80
2022-07-28T03:04:59.185Z,25.80
2022-07-28T03:07:31.704Z,25.70
2022-07-28T03:09:59.889Z,25.70
2022-07-28T03:12:27.488Z,25.70
2022-07-28T03:14:55.212Z,25.60
2022-07-28T03:17:22.738Z,25.60
2022-07-28T03:19:50.295Z,25.40
2022-07-28T03:22:18.131Z,25.40
2022-07-28T03:24:50.787Z,25.30
2022-07-28T03:27:39.683Z,25.40
2022-07-28T03:30:11.580Z,25.40
2022-07-28T03:32:44.464Z,25.40
2022-07-28T03:35:14.075Z,25.40
2022-07-28T03:37:58.031Z,25.40
2022-07-28T03:40:29.568Z,25.40
2022-07-28T03:42:58.010Z,25.40
2022-07-28T03:45:26.499Z,25.40
2022-07-28T03:47:56.752Z,25.40
2022-07-28T03:50:29.840Z,25.40
2022-07-28T03:52:58.573Z,25.40
2022-07-28T03:55:26.926Z,25.40
2022-07-28T03:57:54.502Z,25.50
2022-07-28T04:00:22.038Z,25.50
2022-07-28T04:02:49.409Z,25.50
2022-07-28T04:05:19.154Z,25.60
2022-07-28T04:07:46.850Z,25.50
2022-07-28T04:10:16.166Z,25.50
2022-07-28T04:12:52.139Z,25.50
2022-07-28T04:15:20.729Z,25.50
2022-07-28T04:17:49.211Z,25.50
2022-07-28T04:20:18.037Z,25.50
2022-07-28T04:26:12.631Z,25.40
2022-07-28T04:28:40.013Z,25.30
2022-07-28T04:31:07.384Z,25.30
2022-07-28T04:33:34.737Z,25.30
2022-07-28T04:36:02.191Z,25.20
2022-07-28T04:38:29.530Z,25.20
2022-07-28T04:40:57.503Z,25.30
2022-07-28T04:43:24.795Z,25.30
2022-07-28T04:45:53.389Z,25.40
2022-07-28T04:48:23.058Z,25.40
2022-07-28T04:50:52.761Z,25.50
2022-07-28T04:53:23.042Z,25.50
2022-07-28T04:55:51.960Z,25.60
2022-07-28T04:58:22.551Z,25.60
2022-07-28T05:00:50.967Z,25.60
2022-07-28T05:03:19.529Z,25.70
2022-07-28T05:05:49.176Z,25.60
2022-07-28T05:08:22.253Z,25.60
2022-07-28T05:10:53.695Z,25.60
2022-07-28T05:13:21.225Z,25.70
2022-07-28T05:15:48.709Z,25.70
2022-07-28T05:18:19.964Z,25.70
2022-07-28T05:21:16.621Z,25.70
2022-07-28T05:23:50.042Z,26.00
2022-07-28T05:26:17.542Z,26.30
2022-07-28T05:29:06.412Z,26.70
2022-07-28T05:31:33.892Z,26.90
2022-07-28T05:34:03.785Z,27.10
2022-07-28T05:36:32.074Z,27.20
2022-07-28T05:38:59.423Z,27.20
2022-07-28T05:41:26.860Z,27.20
2022-07-28T05:43:54.243Z,27.30
2022-07-28T05:46:21.885Z,27.30
2022-07-28T05:48:49.324Z,27.30
2022-07-28T05:51:16.783Z,27.30
2022-07-28T05:53:44.168Z,27.30
2022-07-28T05:56:18.240Z,27.50
2022-07-28T05:58:45.542Z,27.50
2022-07-28T06:01:12.839Z,27.80
2022-07-28T06:03:42.481Z,27.90
2022-07-28T06:06:15.871Z,28.20
2022-07-28T06:08:47.402Z,28.40
2022-07-28T06:11:22.098Z,28.60
2022-07-28T06:13:51.430Z,28.90
2022-07-28T06:16:20.749Z,29.20
2022-07-28T06:18:48.863Z,29.20
2022-07-28T06:21:16.414Z,29.30
2022-07-28T06:23:44.049Z,29.30
2022-07-28T06:26:11.318Z,29.40
2022-07-28T06:28:38.650Z,29.50
2022-07-28T06:31:06.062Z,29.70
2022-07-28T06:33:33.463Z,29.70
2022-07-28T06:36:00.715Z,29.60
2022-07-28T06:38:28.453Z,29.50
2022-07-28T06:40:55.734Z,29.50
2022-07-28T06:43:22.995Z,29.40
2022-07-28T06:45:51.263Z,29.60
2022-07-28T06:48:20.132Z,29.90
2022-07-28T06:50:47.553Z,30.00
2022-07-28T06:53:14.832Z,30.00
2022-07-28T06:55:42.527Z,30.10
2022-07-28T06:58:17.273Z,30.50
2022-07-28T07:00:44.802Z,30.20
2022-07-28T07:03:12.235Z,30.10
2022-07-28T07:05:39.502Z,30.10
2022-07-28T07:08:06.852Z,30.00
2022-07-28T07:10:36.102Z,30.30
2022-07-28T07:13:03.367Z,30.50
2022-07-28T07:15:30.791Z,30.40
2022-07-28T07:17:59.622Z,30.40
2022-07-28T07:20:26.989Z,30.60
2022-07-28T07:22:55.478Z,30.60
2022-07-28T07:25:22.744Z,30.60
2022-07-28T07:27:50.025Z,31.10
2022-07-28T07:30:17.413Z,31.50
2022-07-28T07:32:45.153Z,31.60
2022-07-28T07:35:12.684Z,31.70
2022-07-28T07:37:40.235Z,31.50
2022-07-28T07:40:08.899Z,31.60
2022-07-28T07:42:36.550Z,31.80
2022-07-28T07:45:04.389Z,31.90
2022-07-28T07:47:31.967Z,31.70
2022-07-28T07:50:03.970Z,31.50
2022-07-28T07:52:32.140Z,31.20
2022-07-28T07:54:59.595Z,31.20
2022-07-28T07:57:27.340Z,31.40
2022-07-28T07:59:54.647Z,31.40
2022-07-28T08:02:21.884Z,31.30
2022-07-28T08:04:49.135Z,31.30
2022-07-28T08:07:17.357Z,31.30
2022-07-28T08:09:49.527Z,31.30
2022-07-28T08:12:17.144Z,31.20
2022-07-28T08:14:52.709Z,31.30
2022-07-28T08:17:25.252Z,31.10
2022-07-28T08:19:54.185Z,31.20
2022-07-28T08:22:21.768Z,31.50
2022-07-28T08:24:49.015Z,31.70
2022-07-28T08:27:19.169Z,31.70
2022-07-28T08:29:46.847Z,31.80
2022-07-28T08:32:14.138Z,31.90
2022-07-28T08:34:41.562Z,31.70
2022-07-28T08:37:08.878Z,31.80
2022-07-28T08:39:36.664Z,32.00
2022-07-28T08:42:20.427Z,32.00
2022-07-28T08:44:57.541Z,32.10
2022-07-28T08:47:40.203Z,31.80
2022-07-28T08:50:13.989Z,31.80
2022-07-28T08:52:45.337Z,31.60
2022-07-28T08:55:19.149Z,31.40
2022-07-28T08:57:47.399Z,31.40
2022-07-28T09:00:15.224Z,31.70
2022-07-28T09:02:52.201Z,31.70
2022-07-28T09:05:21.319Z,31.70
2022-07-28T09:08:08.788Z,32.20
2022-07-28T09:10:36.121Z,32.70
2022-07-28T09:13:04.002Z,32.90
2022-07-28T09:15:32.750Z,33.10
2022-07-28T09:18:00.333Z,33.00
2022-07-28T09:20:29.692Z,32.50
2022-07-28T09:23:05.383Z,32.20
2022-07-28T09:26:10.818Z,32.10
2022-07-28T09:28:54.094Z,31.70
2022-07-28T09:31:23.281Z,31.60
2022-07-28T09:33:58.216Z,31.90
2022-07-28T09:36:25.638Z,32.00
2022-07-28T09:38:54.073Z,32.00
2022-07-28T09:41:21.939Z,32.20
2022-07-28T09:43:55.024Z,32.00
2022-07-28T09:46:27.390Z,32.10
2022-07-28T09:48:59.491Z,32.10
2022-07-28T09:51:31.988Z,32.10
2022-07-28T09:54:17.790Z,32.10
2022-07-28T09:56:46.428Z,31.90
2022-07-28T09:59:16.054Z,32.10
2022-07-28T10:01:59.924Z,32.40
2022-07-28T10:04:33.409Z,32.40
2022-07-28T10:07:10.088Z,32.40
2022-07-28T10:09:38.868Z,32.50
2022-07-28T10:12:17.621Z,32.50
2022-07-28T10:14:46.503Z,32.20
2022-07-28T10:17:33.568Z,32.20
2022-07-28T10:20:03.881Z,32.40
2022-07-28T10:22:38.280Z,32.40
2022-07-28T10:25:10.009Z,32.40
2022-07-28T10:27:39.380Z,32.50
2022-07-28T10:30:07.280Z,32.40
2022-07-28T10:32:41.620Z,32.40
2022-07-28T10:35:14.595Z,32.20
2022-07-28T10:38:09.823Z,31.80
2022-07-28T10:40:50.553Z,31.70
2022-07-28T10:43:22.390Z,31.80
2022-07-28T10:46:07.457Z,32.10
2022-07-28T10:48:38.851Z,32.20
2022-07-28T10:51:06.631Z,32.40
2022-07-28T10:53:50.923Z,32.20
2022-07-28T10:56:38.498Z,32.20
2022-07-28T10:59:21.164Z,32.10
2022-07-28T11:01:52.725Z,31.80
2022-07-28T11:04:46.863Z,31.80
2022-07-28T11:07:16.864Z,31.90
2022-07-28T11:09:47.461Z,31.80
2022-07-28T11:12:15.949Z,31.90
2022-07-28T11:14:43.558Z,31.90
2022-07-28T11:17:12.175Z,32.10
2022-07-28T11:19:55.726Z,32.40
2022-07-28T11:22:33.290Z,32.20
2022-07-28T11:25:19.296Z,32.10
2022-07-28T11:27:52.191Z,32.30
2022-07-28T11:30:25.775Z,32.50
2022-07-28T11:32:55.864Z,32.60
2022-07-28T11:35:27.515Z,32.70
2022-07-28T11:38:01.024Z,32.50
2022-07-28T11:40:58.282Z,32.30
2022-07-28T11:43:36.947Z,32.40
2022-07-28T11:46:24.832Z,32.60
2022-07-28T11:49:16.964Z,32.50
2022-07-28T11:52:15.174Z,32.30
2022-07-28T11:54:49.354Z,32.30
2022-07-28T11:57:19.435Z,32.20
2022-07-28T11:59:49.711Z,32.30
2022-07-28T12:02:19.804Z,32.20
2022-07-28T12:04:56.852Z,32.30
2022-07-28T12:07:45.356Z,32.20
2022-07-28T12:10:51.964Z,32.30
2022-07-28T12:13:12.080Z,32.40
2022-07-28T12:15:39.484Z,32.40
2022-07-28T12:18:14.478Z,32.50
2022-07-28T12:20:48.586Z,32.50
2022-07-28T12:23:16.584Z,32.50
2022-07-28T12:25:45.972Z,32.70
2022-07-28T12:28:19.020Z,32.60
2022-07-28T12:30:46.884Z,32.60
2022-07-28T12:33:29.588Z,32.60
2022-07-28T12:35:59.244Z,32.70
2022-07-28T12:38:27.965Z,32.80
2022-07-28T12:40:55.569Z,32.50
2022-07-28T12:43:26.328Z,32.30
2022-07-28T12:45:54.444Z,32.40
2022-07-28T12:48:22.252Z,32.40
2022-07-28T12:50:50.035Z,32.30
2022-07-28T12:53:22.820Z,32.20
2022-07-28T12:56:00.601Z,32.30
2022-07-28T12:58:28.912Z,32.30
2022-07-28T13:00:56.686Z,32.20
2022-07-28T13:03:26.377Z,32.20
2022-07-28T13:06:05.856Z,32.20
2022-07-28T13:08:45.064Z,32.20
2022-07-28T13:11:45.746Z,32.40
2022-07-28T13:14:03.094Z,32.50
2022-07-28T13:16:30.649Z,32.50
2022-07-28T13:19:02.734Z,32.60
2022-07-28T13:21:56.606Z,32.70
2022-07-28T13:24:45.330Z,32.80
2022-07-28T13:27:13.061Z,32.90
2022-07-28T13:29:40.335Z,32.80
2022-07-28T13:32:07.951Z,32.70
2022-07-28T13:34:38.171Z,32.70
2022-07-28T13:37:05.880Z,32.70
2022-07-28T13:39:36.661Z,32.50
2022-07-28T13:42:13.249Z,32.50
2022-07-28T13:44:40.853Z,32.40
2022-07-28T13:47:08.409Z,32.40
2022-07-28T13:49:37.827Z,32.40
2022-07-28T13:52:06.974Z,32.30
2022-07-28T13:54:40.603Z,32.40
2022-07-28T13:57:08.005Z,32.40
2022-07-28T13:59:37.688Z,32.40
2022-07-28T14:02:05.753Z,32.40
2022-07-28T14:05:36.716Z,32.30
2022-07-28T14:08:35.232Z,32.50
2022-07-28T14:11:03.582Z,32.50
2022-07-28T14:13:31.579Z,32.40
2022-07-28T14:16:07.816Z,32.30
2022-07-28T14:18:38.700Z,32.20
2022-07-28T14:21:06.486Z,32.20
2022-07-28T14:23:36.394Z,32.10
2022-07-28T14:26:33.167Z,32.00
2022-07-28T14:28:54.383Z,31.90
2022-07-28T14:31:22.473Z,31.80
2022-07-28T14:33:54.471Z,31.80
2022-07-28T14:36:37.606Z,31.70
2022-07-28T14:39:12.416Z,31.70
2022-07-28T14:41:42.667Z,31.70
2022-07-28T14:44:15.286Z,31.60
2022-07-28T14:46:43.058Z,31.70
2022-07-28T14:49:10.454Z,31.80
2022-07-28T14:51:41.684Z,31.90
2022-07-28T14:54:12.512Z,31.90
2022-07-28T14:56:40.030Z,32.00
2022-07-28T14:59:07.431Z,32.00
2022-07-28T15:01:36.525Z,32.00
2022-07-28T15:04:57.618Z,32.10
2022-07-28T15:07:25.171Z,32.00
2022-07-28T15:09:52.953Z,31.90
2022-07-28T15:12:20.314Z,31.90
2022-07-28T15:14:47.664Z,31.90
2022-07-28T15:17:14.954Z,31.90
2022-07-28T15:19:43.765Z,31.90
2022-07-28T15:22:11.089Z,31.90
2022-07-28T15:24:38.422Z,31.80
2022-07-28T15:27:05.727Z,31.70
2022-07-28T15:29:35.679Z,31.80
2022-07-28T15:32:04.346Z,31.80
2022-07-28T15:34:32.253Z,31.80
2022-07-28T15:37:00.911Z,31.80
2022-07-28T15:39:28.755Z,31.90
2022-07-28T15:41:59.561Z,31.80
2022-07-28T15:44:26.902Z,31.90
2022-07-28T15:46:54.615Z,32.00
2022-07-28T15:49:22.064Z,32.00
2022-07-28T15:51:49.363Z,31.80
2022-07-28T15:54:25.540Z,31.70
2022-07-28T15:56:52.882Z,31.80
2022-07-28T15:59:20.220Z,31.80
2022-07-28T16:01:48.408Z,31.90
2022-07-28T16:04:16.266Z,32.00
2022-07-28T16:07:15.521Z,32.00
2022-07-28T16:09:45.650Z,31.90
2022-07-28T16:12:15.082Z,31.80
2022-07-28T16:14:42.844Z,31.70
2022-07-28T16:17:12.509Z,31.60
2022-07-28T16:19:49.349Z,31.60
2022-07-28T16:22:21.163Z,31.60
2022-07-28T16:24:51.340Z,31.60
2022-07-28T16:27:18.815Z,31.60
2022-07-28T16:29:49.501Z,31.60
2022-07-28T16:32:17.146Z,31.60
2022-07-28T16:34:44.849Z,31.60
2022-07-28T16:37:16.050Z,31.60
2022-07-28T16:39:47.234Z,31.60
2022-07-28T16:42:16.981Z,31.50
2022-07-28T16:44:44.361Z,31.50
2022-07-28T16:47:12.389Z,31.60
2022-07-28T16:49:45.541Z,31.60
2022-07-28T16:52:16.425Z,31.70
2022-07-28T16:54:43.785Z,31.60
2022-07-28T16:57:11.258Z,31.60
2022-07-28T16:59:48.300Z,31.50
2022-07-28T17:02:17.783Z,31.50
2022-07-28T17:04:46.124Z,31.40
2022-07-28T17:07:13.530Z,31.40
2022-07-28T17:09:40.877Z,31.40
2022-07-28T17:12:09.265Z,31.40
2022-07-28T17:14:36.636Z,31.40
2022-07-28T17:17:03.969Z,31.40
2022-07-28T17:19:33.171Z,31.30
2022-07-28T17:22:01.176Z,31.20
2022-07-28T17:24:28.559Z,31.20
2022-07-28T17:29:43.839Z,31.10
2022-07-28T17:32:11.408Z,31.00
2022-07-28T17:34:38.758Z,31.00
2022-07-28T17:37:06.276Z,30.90
2022-07-28T17:39:33.706Z,31.00
2022-07-28T17:42:01.098Z,31.00
2022-07-28T17:44:28.385Z,31.00
2022-07-28T17:46:55.754Z,30.90
2022-07-28T17:49:23.826Z,30.90
2022-07-28T17:51:51.451Z,30.90
2022-07-28T17:54:22.843Z,30.80
2022-07-28T17:56:52.570Z,30.80
2022-07-28T17:59:20.893Z,30.70
2022-07-28T18:01:48.249Z,30.70
2022-07-28T18:04:15.804Z,30.70
2022-07-28T18:06:44.641Z,30.70
2022-07-28T18:09:12.071Z,30.60
2022-07-28T18:11:57.332Z,30.60
2022-07-28T18:14:30.168Z,30.60
2022-07-28T18:16:58.874Z,30.50
2022-07-28T18:19:27.188Z,30.50
2022-07-28T18:21:55.719Z,30.50
2022-07-28T18:24:23.251Z,30.40
2022-07-28T18:26:53.437Z,30.40
2022-07-28T18:29:21.480Z,30.40
2022-07-28T18:31:51.687Z,30.40
2022-07-28T18:34:23.188Z,30.30
2022-07-28T18:36:53.342Z,30.30
2022-07-28T18:39:20.680Z,30.30
2022-07-28T18:41:48.220Z,30.30
2022-07-28T18:44:17.549Z,30.20
2022-07-28T18:46:45.621Z,30.20
2022-07-28T18:49:13.393Z,30.20
2022-07-28T18:51:45.359Z,30.30
2022-07-28T18:54:18.772Z,30.20
2022-07-28T18:56:49.348Z,30.10
2022-07-28T18:59:17.261Z,30.00
2022-07-28T19:01:44.602Z,30.00
2022-07-28T19:04:12.048Z,30.00
2022-07-28T19:06:39.440Z,30.00
2022-07-28T19:09:06.895Z,30.00
2022-07-28T19:11:34.318Z,30.00
2022-07-28T19:14:01.844Z,30.00
2022-07-28T19:16:29.119Z,29.80
2022-07-28T19:18:56.475Z,29.60
2022-07-28T19:21:24.452Z,29.50
2022-07-28T19:23:52.948Z,29.50
2022-07-28T19:26:20.449Z,29.40
2022-07-28T19:28:47.789Z,29.40
2022-07-28T19:31:15.152Z,29.30
2022-07-28T19:33:43.065Z,29.10
2022-07-28T19:36:13.655Z,29.10
2022-07-28T19:38:41.962Z,29.20
2022-07-28T19:41:10.125Z,29.30
2022-07-28T19:43:37.436Z,29.40
2022-07-28T19:46:05.215Z,29.40
2022-07-28T19:48:39.454Z,29.50
2022-07-28T19:51:06.988Z,29.50
2022-07-28T19:53:37.668Z,29.50
2022-07-28T19:56:08.999Z,29.40
2022-07-28T19:58:36.684Z,29.20
2022-07-28T20:01:04.936Z,29.00
2022-07-28T20:04:01.415Z,29.00
2022-07-28T20:06:24.792Z,29.10
2022-07-28T20:08:54.148Z,29.00
2022-07-28T20:11:21.573Z,28.90
2022-07-28T20:13:49.530Z,28.90
2022-07-28T20:16:18.051Z,29.00
2022-07-28T20:18:45.436Z,29.00
2022-07-28T20:21:12.968Z,29.00
2022-07-28T20:23:41.034Z,28.90
2022-07-28T20:26:09.957Z,28.90
2022-07-28T20:28:40.372Z,28.80
2022-07-28T20:31:07.877Z,28.70
2022-07-28T20:33:35.242Z,28.60
2022-07-28T20:36:02.604Z,28.60
2022-07-28T20:38:29.854Z,28.60
2022-07-28T20:40:57.102Z,28.60
2022-07-28T20:43:24.348Z,28.80
2022-07-28T20:46:05.135Z,28.80
2022-07-28T20:48:32.881Z,28.70
2022-07-28T20:51:00.312Z,28.60
2022-07-28T20:53:27.654Z,28.50
2022-07-28T20:55:54.976Z,28.40
2022-07-28T20:58:22.229Z,28.30
2022-07-28T21:00:51.344Z,28.30
2022-07-28T21:03:19.140Z,28.20
2022-07-28T21:05:46.827Z,28.30
2022-07-28T21:08:16.230Z,28.30
2022-07-28T21:10:45.167Z,28.40
2022-07-28T21:13:12.455Z,28.60
2022-07-28T21:15:39.695Z,28.60
2022-07-28T21:18:06.985Z,28.60
2022-07-28T21:20:34.413Z,28.60
2022-07-28T21:23:01.638Z,28.60
2022-07-28T21:25:33.049Z,28.60
2022-07-28T21:28:18.752Z,28.70
2022-07-28T21:30:46.220Z,28.70
2022-07-28T21:33:13.711Z,28.90
2022-07-28T21:35:50.258Z,28.90
2022-07-28T21:38:17.997Z,28.90
2022-07-28T21:40:45.526Z,29.00
2022-07-28T21:43:12.763Z,29.00
2022-07-28T21:45:40.126Z,29.00
2022-07-28T21:48:07.762Z,29.00
2022-07-28T21:50:37.269Z,29.00
2022-07-28T21:53:04.626Z,29.00
2022-07-28T21:55:31.843Z,29.10
2022-07-28T21:57:59.070Z,29.00
2022-07-28T22:00:26.636Z,28.90
2022-07-28T22:02:54.686Z,28.80
2022-07-28T22:05:22.250Z,28.90
2022-07-28T22:07:49.746Z,28.90
2022-07-28T22:10:18.718Z,29.00
2022-07-28T22:12:46.363Z,29.10
2022-07-28T22:15:13.637Z,28.90
2022-07-28T22:17:41.312Z,28.10
2022-07-28T22:20:10.477Z,27.50
2022-07-28T22:22:38.346Z,26.80
2022-07-28T22:25:06.746Z,26.40
2022-07-28T22:27:34.225Z,25.70
2022-07-28T22:30:02.863Z,25.10
2022-07-28T22:32:52.087Z,24.70
2022-07-28T22:35:19.567Z,24.40
2022-07-28T22:37:46.905Z,24.20
2022-07-28T22:40:17.068Z,24.10
2022-07-28T22:42:44.888Z,24.10
2022-07-28T22:45:12.522Z,24.20
2022-07-28T22:47:42.368Z,24.20
2022-07-28T22:50:10.427Z,24.30
2022-07-28T22:52:45.145Z,24.30
2022-07-28T22:55:40.075Z,24.20
2022-07-28T22:58:07.480Z,24.10
2022-07-28T23:00:36.356Z,24.10
2022-07-28T23:03:04.677Z,24.10
2022-07-28T23:05:32.706Z,24.20
2022-07-28T23:07:59.981Z,24.00
2022-07-28T23:10:29.126Z,23.70
2022-07-28T23:12:58.709Z,23.50
2022-07-28T23:15:39.995Z,23.50
2022-07-28T23:18:16.173Z,23.60
2022-07-28T23:20:44.833Z,23.50
2022-07-28T23:23:12.363Z,23.30
2022-07-28T23:25:42.663Z,22.90
2022-07-28T23:28:11.534Z,22.80
2022-07-28T23:30:39.040Z,22.80
2022-07-28T23:33:06.805Z,22.90
2022-07-28T23:35:36.779Z,23.00
2022-07-28T23:38:04.404Z,22.90
2022-07-28T23:40:31.841Z,22.90
2022-07-28T23:42:59.229Z,22.90
2022-07-28T23:45:30.302Z,22.80
2022-07-28T23:47:58.976Z,22.80
2022-07-28T23:50:51.835Z,22.90
2022-07-28T23:53:19.333Z,23.10
2022-07-28T23:55:46.827Z,23.10
2022-07-28T23:58:14.250Z,23.20
